Time,TemperatureF,DewpointF,PressureIn,WindDirection,WindDirectionDegrees,WindSpeedMPH,WindSpeedGustMPH,Humidity,HourlyPrecipIn,Conditions,Clouds,dailyrainin,SoftwareType,DateUTC
2013-03-20 00:00:00,54.4,51.8,30.14,WNW,292,1.0,3.0,91,0.00,,---,0.00,VWS V14.01,2013-03-20 07:00:00,
2013-03-20 00:30:00,54.2,52.2,30.13,WNW,292,2.0,3.0,93,0.00,,---,0.00,VWS V14.01,2013-03-20 07:30:00,
2013-03-20 01:00:00,53.7,51.7,30.13,WNW,292,0.0,1.0,93,0.00,,---,0.00,VWS V14.01,2013-03-20 08:00:00,
2013-03-20 01:30:00,53.7,52.0,30.11,WNW,292,0.0,3.0,94,0.00,,---,0.00,VWS V14.01,2013-03-20 08:30:00,
2013-03-20 02:00:00,53.9,52.2,30.10,WNW,292,1.0,4.0,94,0.00,,---,0.00,VWS V14.01,2013-03-20 09:00:00,
2013-03-20 02:30:00,53.7,52.0,30.10,WNW,292,1.0,3.0,94,0.00,,---,0.00,VWS V14.01,2013-03-20 09:30:00,
2013-03-20 03:00:00,53.2,51.8,30.09,WNW,292,1.0,3.0,95,0.00,,---,0.00,VWS V14.01,2013-03-20 10:00:00,
2013-03-20 03:30:00,52.7,51.3,30.10,WNW,292,0.0,2.0,95,0.00,,---,0.00,VWS V14.01,2013-03-20 10:30:00,
2013-03-20 04:00:00,52.2,51.1,30.09,WNW,292,1.0,3.0,96,0.00,,---,0.00,VWS V14.01,2013-03-20 11:00:00,
2013-03-20 04:30:00,51.6,50.5,30.08,WNW,292,1.0,3.0,96,0.00,,---,0.00,VWS V14.01,2013-03-20 11:30:00,
2013-03-20 05:00:00,51.5,50.4,30.08,WNW,292,0.0,4.0,96,0.00,,---,0.00,VWS V14.01,2013-03-20 12:00:00,
2013-03-20 05:30:00,51.2,50.1,30.07,WNW,292,0.0,3.0,96,0.00,,---,0.00,VWS V14.01,2013-03-20 12:30:00,
2013-03-20 06:00:00,51.6,51.1,30.07,WNW,292,1.0,5.0,98,0.00,,---,0.00,VWS V14.01,2013-03-20 13:00:00,
2013-03-20 06:30:00,51.9,51.1,30.08,WNW,292,1.0,4.0,97,0.00,,---,0.00,VWS V14.01,2013-03-20 13:30:00,
2013-03-20 07:00:00,51.6,50.8,30.10,WNW,292,2.0,5.0,97,0.00,,---,0.00,VWS V14.01,2013-03-20 14:00:00,
2013-03-20 07:30:00,51.7,51.2,30.09,WNW,292,0.0,3.0,98,0.00,,---,0.00,VWS V14.01,2013-03-20 14:30:00,
2013-03-20 08:00:00,53.6,53.3,30.09,WNW,292,0.0,3.0,99,0.00,,---,0.00,VWS V14.01,2013-03-20 15:00:00,
2013-03-20 08:30:00,55.6,55.0,30.11,WNW,292,1.0,3.0,98,0.00,,---,0.00,VWS V14.01,2013-03-20 15:30:00,
2013-03-20 09:00:00,57.7,55.4,30.12,WNW,292,0.0,4.0,92,0.00,,---,0.00,VWS V14.01,2013-03-20 16:00:00,
2013-03-20 09:30:00,59.9,55.7,30.11,WNW,292,0.0,3.0,86,0.00,,---,0.00,VWS V14.01,2013-03-20 16:30:00,
2013-03-20 10:00:00,61.3,55.4,30.11,WNW,292,1.0,3.0,81,0.00,,---,0.00,VWS V14.01,2013-03-20 17:00:00,
2013-03-20 10:30:00,62.4,56.2,30.12,SW,225,1.0,5.0,80,0.00,,---,0.00,VWS V14.01,2013-03-20 17:30:00,
2013-03-20 11:00:00,64.1,57.1,30.12,SW,225,2.0,6.0,78,0.00,,---,0.00,VWS V14.01,2013-03-20 18:00:00,
2013-03-20 11:30:00,64.3,57.3,30.12,SSE,158,4.0,9.0,78,0.00,,---,0.00,VWS V14.01,2013-03-20 18:30:00,
2013-03-20 12:00:00,64.8,57.1,30.13,SSW,202,5.0,10.0,76,0.00,,---,0.00,VWS V14.01,2013-03-20 19:00:00,
2013-03-20 12:30:00,65.9,57.8,30.11,South,180,5.0,10.0,75,0.00,,---,0.00,VWS V14.01,2013-03-20 19:30:00,
2013-03-20 13:00:00,65.5,57.0,30.11,South,180,6.0,10.0,74,0.00,,---,0.00,VWS V14.01,2013-03-20 20:00:00,
2013-03-20 13:30:00,65.9,58.1,30.10,South,180,6.0,12.0,76,0.00,,---,0.00,VWS V14.01,2013-03-20 20:30:00,
2013-03-20 14:00:00,67.1,58.5,30.07,South,180,5.0,10.0,74,0.00,,---,0.00,VWS V14.01,2013-03-20 21:00:00,
2013-03-20 14:30:00,67.2,58.3,30.07,SSW,202,5.0,11.0,73,0.00,,---,0.00,VWS V14.01,2013-03-20 21:30:00,
2013-03-20 15:00:00,66.4,57.5,30.06,South,180,7.0,14.0,73,0.00,,---,0.00,VWS V14.01,2013-03-20 22:00:00,
2013-03-20 15:30:00,67.3,57.6,30.05,SSW,202,8.0,14.0,71,0.00,,---,0.00,VWS V14.01,2013-03-20 22:30:00,
2013-03-20 16:00:00,66.4,57.5,30.06,South,180,7.0,14.0,73,0.00,,---,0.00,VWS V14.01,2013-03-20 23:00:00,
2013-03-20 16:28:00,67.0,56.9,30.04,SSE,155,4.0,11.0,70,0.00,,---,0.00,VWS V14.01,2013-03-20 23:28:00,
2013-03-20 16:30:00,67.0,56.9,30.04,SSE,155,4.0,11.0,70,0.00,,---,0.00,VWS V14.01,2013-03-20 23:30:00,
2013-03-20 16:59:00,65.8,57.3,30.04,SSE,165,8.0,12.0,74,0.00,,---,0.00,VWS V14.01,2013-03-20 23:59:00,
2013-03-20 17:00:00,65.8,57.3,30.04,SSE,165,8.0,12.0,74,0.00,,---,0.00,VWS V14.01,2013-03-21 00:00:00,
2013-03-20 17:28:00,63.4,56.8,30.02,South,174,8.0,12.0,79,0.00,,---,0.00,VWS V14.01,2013-03-21 00:28:00,
2013-03-20 17:30:00,63.4,56.8,30.02,South,174,8.0,12.0,79,0.00,,---,0.00,VWS V14.01,2013-03-21 00:30:00,
2013-03-20 17:58:00,62.8,56.9,30.02,SW,219,4.0,13.0,81,0.00,,---,0.00,VWS V14.01,2013-03-21 00:58:00,
2013-03-20 18:00:00,62.8,56.9,30.02,SW,219,4.0,13.0,81,0.00,,---,0.00,VWS V14.01,2013-03-21 01:00:00,
2013-03-20 18:28:00,62.7,56.5,30.01,WSW,239,1.0,7.0,80,0.00,,---,0.00,VWS V14.01,2013-03-21 01:28:00,
2013-03-20 18:30:00,62.7,56.5,30.01,WSW,239,1.0,7.0,80,0.00,,---,0.00,VWS V14.01,2013-03-21 01:30:00,
2013-03-20 18:58:00,64.1,52.9,30.02,SSE,165,4.0,13.0,67,0.00,,---,0.00,VWS V14.01,2013-03-21 01:58:00,
2013-03-20 19:00:00,64.1,52.9,30.02,SSE,165,4.0,13.0,67,0.00,,---,0.00,VWS V14.01,2013-03-21 02:00:00,
2013-03-20 19:28:00,61.8,55.9,30.01,South,175,0.0,4.0,81,0.00,,---,0.00,VWS V14.01,2013-03-21 02:28:00,
2013-03-20 19:30:00,61.8,55.9,30.01,South,175,0.0,4.0,81,0.00,,---,0.00,VWS V14.01,2013-03-21 02:30:00,
2013-03-20 19:58:00,60.0,55.5,30.02,SSE,158,4.0,7.0,85,0.00,,---,0.00,VWS V14.01,2013-03-21 02:58:00,
2013-03-20 20:00:00,60.0,55.5,30.02,SSE,158,4.0,7.0,85,0.00,,---,0.00,VWS V14.01,2013-03-21 03:00:00,
2013-03-20 20:28:00,59.2,55.3,30.01,SSE,154,3.0,6.0,87,0.00,,---,0.00,VWS V14.01,2013-03-21 03:28:00,
2013-03-20 20:30:00,59.2,55.3,30.01,SSE,154,3.0,6.0,87,0.00,,---,0.00,VWS V14.01,2013-03-21 03:30:00,
2013-03-20 20:58:00,58.6,55.1,30.01,SSE,156,0.0,6.0,88,0.00,,---,0.00,VWS V14.01,2013-03-21 03:58:00,
2013-03-20 21:00:00,58.6,55.1,30.01,SSE,156,0.0,6.0,88,0.00,,---,0.00,VWS V14.01,2013-03-21 04:00:00,
2013-03-20 21:28:00,58.4,54.9,30.01,South,179,1.0,5.0,88,0.00,,---,0.00,VWS V14.01,2013-03-21 04:28:00,
2013-03-20 21:30:00,58.4,54.9,30.01,South,179,1.0,5.0,88,0.00,,---,0.00,VWS V14.01,2013-03-21 04:30:00,
2013-03-20 21:58:00,57.6,54.7,30.01,South,181,3.0,3.0,90,0.00,,---,0.00,VWS V14.01,2013-03-21 04:58:00,
2013-03-20 22:00:00,57.6,54.7,30.01,South,181,3.0,3.0,90,0.00,,---,0.00,VWS V14.01,2013-03-21 05:00:00,
2013-03-20 22:30:00,57.3,54.7,30.02,ESE,112,3.0,7.0,91,0.00,,---,0.00,VWS V14.01,2013-03-21 05:30:00,
2013-03-20 23:00:00,57.0,54.7,30.01,ESE,112,1.0,4.0,92,0.00,,---,0.00,VWS V14.01,2013-03-21 06:00:00,
2013-03-20 23:30:00,57.3,54.7,29.99,East,90,3.0,6.0,91,0.00,,---,0.00,VWS V14.01,2013-03-21 06:30:00,